メインページ
METAR-TAF:

METAR-TAF

空港 :

仙台空港

仙台, 日本

緯度: 38-08N, 経度: 140-55E, 海抜: 1m

現時点の気象観測

当レポートは51分前の11:00(UTC)に作成
北西の風 15kt
気温 18°C
湿度 28%
気圧 1019 hPa
視程10km以上
1,500メートル以下は雲なし、積乱雲なし

METAR: RJSS 201100Z 31015KT CAVOK 18/M01 Q1019

時間: 20:51 (11:51 UTC)

予報

当レポートは46分前の11:05(UTC)に作成
予報は20日の 12時(UTC)から 21日の 18時(UTC)まで有効
北西の風 10kt
視程10km以上
高度4000ftの雲はほとんどない
20日の 21時(UTC)から 20日の 23時(UTC)まで徐々に
南/南東の風 10kt
21日の 09時(UTC)から 21日の 12時(UTC)まで徐々に
北/北西の風 4kt

TAF: RJSS 201105Z 2012/2118 31010KT 9999 FEW040 BECMG 2021/2023 15010KT BECMG 2109/2112 33004KT

4,000以上の空港の気象観測と天気予報(METAR報とTAF報)

利用可能な観測所は地図上に黄色い丸と赤い丸で示す。

丸の上にカーソルを重ねると観測所名を参照できる。

次にクリックすると気象観測と天気予報を参照できる。

マップの切り替え:黒色「×」印の緑ボタンをクリックして拡大、「-」印の緑ボタンをクリックして縮小、緑色の三角印をクリックして隣りの地図に切り替え


METAR-TAF: